Aviation Digital Data Service (ADDS)

Output produced by METARs form (1959 UTC 31 October 2014)
found at http://aviationweather.gov/adds/metars/
 
KFRG 311953Z 05006KT 10SM OVC048 12/06 A2990 RMK AO2 SLP125 T01220061
KISP 311956Z 05010KT 10SM FEW035 BKN050 OVC065 12/06 A2988 RMK AO2 SLP120 T01220061
KISP 311730Z 3118/0118 05010KT P6SM FEW020 BKN035 OVC150 
     TEMPO 3123/0101 -RA 
     FM010100 04012KT P6SM -RA OVC025 
     FM010600 03016G25KT 5SM -RA BR OVC015 
     FM011400 02020G30KT 3SM RA BR OVC010
       
KJFK 311951Z 04010KT 10SM FEW025 OVC046 12/04 A2991 RMK AO2 SLP126 T01220044
KJFK 311730Z 3118/0124 04009KT P6SM FEW020 BKN035 OVC150 
     TEMPO 0100/0102 -RA 
     FM010200 04012KT P6SM -RA OVC025 
     FM010700 04015G22KT 5SM -RA BR OVC015 
     FM011500 02020G30KT 3SM RA BR OVC010 
     FM012000 36020G30KT 5SM -RA BR OVC015
       
KBDR 311952Z 04009KT 10SM OVC040 13/04 A2991 RMK AO2 SLP129 T01280044
KBDR 311730Z 3118/0118 05010KT P6SM BKN050 OVC150 
     TEMPO 0100/0102 -RA 
     FM010200 05012KT P6SM -RA OVC025 
     FM010700 03016G25KT 5SM -RA BR OVC015 
     FM011500 02018G28KT 3SM RA BR OVC010